Center Cross, Virginia
Current Conditions -  °F | °C
As of 7:55 PM on Wednesday 22 Oct 2014 (Local Time) from KXSA Reporting Station
Overcast Overcast  
Wind Chill: 54°   Ceiling: 3800
Heat Index: 54°   Visibility: 10mi
Dew Point: 48°   Wind: 6mph
Humidity: 82%   Direction: 300°WNW
Pressure: 29.93"   Gusts: NA
Location:  37.8°N, 76.78°W
Report Text: KXSA 222355Z AUTO 30005KT 10SM OVC038 12/09 A2993 RMK AO2 LTG DSNT E T01200090 10128 20118
Loading
Personal Weather Stations






























Interactive Weather Map
Tropical Storm Tracking
New forecast layout! Learn more

10-Day Weather Forecast

Advertisements
Track Severe Weather on mobile